sensor_id;sensor_type;location;lat;lon;timestamp;temperature;humidity
423;DHT22;198;48.752;9.180;2023-07-31T00:00:11;16.20;99.90
423;DHT22;198;48.752;9.180;2023-07-31T00:02:36;16.00;99.90
423;DHT22;198;48.752;9.180;2023-07-31T00:05:02;16.00;99.90
423;DHT22;198;48.752;9.180;2023-07-31T00:07:28;15.90;99.90
423;DHT22;198;48.752;9.180;2023-07-31T00:09:53;15.80;99.90
423;DHT22;198;48.752;9.180;2023-07-31T00:12:20;15.80;99.90
423;DHT22;198;48.752;9.180;2023-07-31T00:14:45;15.70;99.90
423;DHT22;198;48.752;9.180;2023-07-31T00:17:11;15.70;99.90
423;DHT22;198;48.752;9.180;2023-07-31T00:19:37;15.70;99.90
423;DHT22;198;48.752;9.180;2023-07-31T00:22:02;15.70;99.90
423;DHT22;198;48.752;9.180;2023-07-31T00:24:28;15.60;99.90
423;DHT22;198;48.752;9.180;2023-07-31T00:26:53;15.50;99.90
423;DHT22;198;48.752;9.180;2023-07-31T00:29:19;15.50;99.90
423;DHT22;198;48.752;9.180;2023-07-31T00:31:44;15.50;99.90
423;DHT22;198;48.752;9.180;2023-07-31T00:34:10;15.50;99.90
423;DHT22;198;48.752;9.180;2023-07-31T00:36:35;15.50;99.90
423;DHT22;198;48.752;9.180;2023-07-31T00:39:01;15.50;99.90
423;DHT22;198;48.752;9.180;2023-07-31T00:41:27;15.40;99.90
423;DHT22;198;48.752;9.180;2023-07-31T00:43:52;15.40;99.90
423;DHT22;198;48.752;9.180;2023-07-31T00:46:18;15.40;99.90
423;DHT22;198;48.752;9.180;2023-07-31T00:48:43;15.30;99.90
423;DHT22;198;48.752;9.180;2023-07-31T00:51:09;15.30;99.90
423;DHT22;198;48.752;9.180;2023-07-31T00:53:35;15.20;99.90
423;DHT22;198;48.752;9.180;2023-07-31T00:56:01;15.20;99.90
423;DHT22;198;48.752;9.180;2023-07-31T00:58:27;15.10;99.90
423;DHT22;198;48.752;9.180;2023-07-31T01:00:52;15.10;99.90
423;DHT22;198;48.752;9.180;2023-07-31T01:03:18;15.10;99.90
423;DHT22;198;48.752;9.180;2023-07-31T01:08:40;15.10;99.90
423;DHT22;198;48.752;9.180;2023-07-31T01:11:16;15.10;99.90
423;DHT22;198;48.752;9.180;2023-07-31T01:13:44;15.20;99.90
423;DHT22;198;48.752;9.180;2023-07-31T01:16:10;15.10;99.90
423;DHT22;198;48.752;9.180;2023-07-31T01:18:35;15.10;99.90
423;DHT22;198;48.752;9.180;2023-07-31T01:26:53;15.10;99.90
423;DHT22;198;48.752;9.180;2023-07-31T01:31:53;15.00;99.90
423;DHT22;198;48.752;9.180;2023-07-31T01:34:21;15.00;99.90
423;DHT22;198;48.752;9.180;2023-07-31T01:36:47;14.90;99.90
423;DHT22;198;48.752;9.180;2023-07-31T01:39:13;15.00;99.90
423;DHT22;198;48.752;9.180;2023-07-31T01:41:40;14.90;99.90
423;DHT22;198;48.752;9.180;2023-07-31T01:44:06;14.90;99.90
423;DHT22;198;48.752;9.180;2023-07-31T01:46:32;14.90;99.90
423;DHT22;198;48.752;9.180;2023-07-31T01:48:57;14.90;99.90
423;DHT22;198;48.752;9.180;2023-07-31T01:51:23;14.90;99.90
423;DHT22;198;48.752;9.180;2023-07-31T01:53:48;14.90;99.90
423;DHT22;198;48.752;9.180;2023-07-31T01:56:14;14.90;99.90
423;DHT22;198;48.752;9.180;2023-07-31T01:58:39;15.00;99.90
423;DHT22;198;48.752;9.180;2023-07-31T02:01:05;14.90;99.90
423;DHT22;198;48.752;9.180;2023-07-31T02:03:30;14.90;99.90
423;DHT22;198;48.752;9.180;2023-07-31T02:05:56;14.90;99.90
423;DHT22;198;48.752;9.180;2023-07-31T02:08:22;14.90;99.90
423;DHT22;198;48.752;9.180;2023-07-31T02:10:47;14.90;99.90
423;DHT22;198;48.752;9.180;2023-07-31T02:13:13;14.90;99.90
423;DHT22;198;48.752;9.180;2023-07-31T02:15:38;14.90;99.90
423;DHT22;198;48.752;9.180;2023-07-31T02:18:04;14.90;99.90
423;DHT22;198;48.752;9.180;2023-07-31T02:20:30;14.90;99.90
423;DHT22;198;48.752;9.180;2023-07-31T02:22:58;14.90;99.90
423;DHT22;198;48.752;9.180;2023-07-31T02:25:23;14.90;99.90
423;DHT22;198;48.752;9.180;2023-07-31T02:27:49;14.90;99.90
423;DHT22;198;48.752;9.180;2023-07-31T02:30:14;14.90;99.90
423;DHT22;198;48.752;9.180;2023-07-31T02:32:40;14.90;99.90
423;DHT22;198;48.752;9.180;2023-07-31T02:35:06;14.90;99.90
423;DHT22;198;48.752;9.180;2023-07-31T02:37:31;14.90;99.90
423;DHT22;198;48.752;9.180;2023-07-31T02:39:57;14.90;99.90
423;DHT22;198;48.752;9.180;2023-07-31T02:42:22;14.80;99.90
423;DHT22;198;48.752;9.180;2023-07-31T02:44:48;14.80;99.90
423;DHT22;198;48.752;9.180;2023-07-31T02:47:14;14.80;99.90
423;DHT22;198;48.752;9.180;2023-07-31T02:49:40;14.70;99.90
423;DHT22;198;48.752;9.180;2023-07-31T02:52:05;14.70;99.90
423;DHT22;198;48.752;9.180;2023-07-31T02:54:31;14.70;99.90
423;DHT22;198;48.752;9.180;2023-07-31T02:56:56;14.70;99.90
423;DHT22;198;48.752;9.180;2023-07-31T02:59:22;14.70;99.90
423;DHT22;198;48.752;9.180;2023-07-31T03:01:48;14.60;99.90
423;DHT22;198;48.752;9.180;2023-07-31T03:04:13;14.60;99.90
423;DHT22;198;48.752;9.180;2023-07-31T03:06:39;14.60;99.90
423;DHT22;198;48.752;9.180;2023-07-31T03:09:04;14.60;99.90
423;DHT22;198;48.752;9.180;2023-07-31T03:11:30;14.50;99.90
423;DHT22;198;48.752;9.180;2023-07-31T03:13:55;14.50;99.90
423;DHT22;198;48.752;9.180;2023-07-31T03:16:21;14.50;99.90
423;DHT22;198;48.752;9.180;2023-07-31T03:18:46;14.50;99.90
423;DHT22;198;48.752;9.180;2023-07-31T03:21:12;14.50;99.90
423;DHT22;198;48.752;9.180;2023-07-31T03:23:38;14.50;99.90
423;DHT22;198;48.752;9.180;2023-07-31T03:26:06;14.50;99.90
423;DHT22;198;48.752;9.180;2023-07-31T03:28:32;14.60;99.90
423;DHT22;198;48.752;9.180;2023-07-31T03:30:57;14.60;99.90
423;DHT22;198;48.752;9.180;2023-07-31T03:33:23;14.60;99.90
423;DHT22;198;48.752;9.180;2023-07-31T03:35:48;14.50;99.90
423;DHT22;198;48.752;9.180;2023-07-31T03:38:14;14.50;99.90
423;DHT22;198;48.752;9.180;2023-07-31T03:40:39;14.50;99.90
423;DHT22;198;48.752;9.180;2023-07-31T03:43:05;14.50;99.90
423;DHT22;198;48.752;9.180;2023-07-31T03:45:31;14.50;99.90
423;DHT22;198;48.752;9.180;2023-07-31T03:47:57;14.60;99.90
423;DHT22;198;48.752;9.180;2023-07-31T03:50:22;14.60;99.90
423;DHT22;198;48.752;9.180;2023-07-31T03:52:48;14.70;99.90
423;DHT22;198;48.752;9.180;2023-07-31T03:55:13;14.70;99.90
423;DHT22;198;48.752;9.180;2023-07-31T03:57:39;14.80;99.90
423;DHT22;198;48.752;9.180;2023-07-31T04:00:05;14.90;99.90
423;DHT22;198;48.752;9.180;2023-07-31T04:02:30;15.00;99.90
423;DHT22;198;48.752;9.180;2023-07-31T04:04:56;15.00;99.90
423;DHT22;198;48.752;9.180;2023-07-31T04:07:21;15.10;99.90
423;DHT22;198;48.752;9.180;2023-07-31T04:09:47;15.20;99.90
423;DHT22;198;48.752;9.180;2023-07-31T04:12:12;15.30;99.90
423;DHT22;198;48.752;9.180;2023-07-31T04:14:38;15.30;99.90
423;DHT22;198;48.752;9.180;2023-07-31T04:17:03;15.40;99.90
423;DHT22;198;48.752;9.180;2023-07-31T04:19:29;15.50;99.90
423;DHT22;198;48.752;9.180;2023-07-31T04:21:55;15.50;99.90
423;DHT22;198;48.752;9.180;2023-07-31T04:24:20;15.60;99.90
423;DHT22;198;48.752;9.180;2023-07-31T04:26:50;15.60;99.90
423;DHT22;198;48.752;9.180;2023-07-31T04:29:16;15.70;99.90
423;DHT22;198;48.752;9.180;2023-07-31T04:31:41;15.70;99.90
423;DHT22;198;48.752;9.180;2023-07-31T04:34:07;15.80;99.90
423;DHT22;198;48.752;9.180;2023-07-31T04:36:34;15.80;99.90
423;DHT22;198;48.752;9.180;2023-07-31T04:39:00;15.80;99.90
423;DHT22;198;48.752;9.180;2023-07-31T04:41:25;15.90;99.90
423;DHT22;198;48.752;9.180;2023-07-31T04:43:51;15.90;99.90
423;DHT22;198;48.752;9.180;2023-07-31T04:46:16;16.00;99.90
423;DHT22;198;48.752;9.180;2023-07-31T04:48:42;16.10;99.90
423;DHT22;198;48.752;9.180;2023-07-31T04:51:08;16.10;99.90
423;DHT22;198;48.752;9.180;2023-07-31T04:53:34;16.10;99.90
423;DHT22;198;48.752;9.180;2023-07-31T04:56:00;16.20;99.90
423;DHT22;198;48.752;9.180;2023-07-31T04:58:25;16.30;99.90
423;DHT22;198;48.752;9.180;2023-07-31T05:00:51;16.30;99.90
423;DHT22;198;48.752;9.180;2023-07-31T05:03:16;16.30;99.90
423;DHT22;198;48.752;9.180;2023-07-31T05:05:42;16.30;99.90
423;DHT22;198;48.752;9.180;2023-07-31T05:08:08;16.30;99.90
423;DHT22;198;48.752;9.180;2023-07-31T05:10:33;16.30;99.90
423;DHT22;198;48.752;9.180;2023-07-31T05:12:59;16.30;99.90
423;DHT22;198;48.752;9.180;2023-07-31T05:15:24;16.30;99.90
423;DHT22;198;48.752;9.180;2023-07-31T05:17:50;16.30;99.90
423;DHT22;198;48.752;9.180;2023-07-31T05:20:15;16.30;99.90
423;DHT22;198;48.752;9.180;2023-07-31T05:22:41;16.30;99.90
423;DHT22;198;48.752;9.180;2023-07-31T05:25:06;16.30;99.90
423;DHT22;198;48.752;9.180;2023-07-31T05:27:32;16.40;99.90
423;DHT22;198;48.752;9.180;2023-07-31T05:29:58;16.50;99.90
423;DHT22;198;48.752;9.180;2023-07-31T05:32:23;16.50;99.90
423;DHT22;198;48.752;9.180;2023-07-31T05:34:51;16.50;99.90
423;DHT22;198;48.752;9.180;2023-07-31T05:37:17;16.60;99.90
423;DHT22;198;48.752;9.180;2023-07-31T05:39:43;16.70;99.90
423;DHT22;198;48.752;9.180;2023-07-31T05:42:08;16.90;99.90
423;DHT22;198;48.752;9.180;2023-07-31T05:44:34;17.00;99.90
423;DHT22;198;48.752;9.180;2023-07-31T05:46:59;17.10;99.90
423;DHT22;198;48.752;9.180;2023-07-31T05:49:25;17.40;99.90
423;DHT22;198;48.752;9.180;2023-07-31T05:51:50;17.60;99.90
423;DHT22;198;48.752;9.180;2023-07-31T05:54:16;17.80;99.90
423;DHT22;198;48.752;9.180;2023-07-31T05:56:41;18.00;99.90
423;DHT22;198;48.752;9.180;2023-07-31T05:59:08;18.10;99.90
423;DHT22;198;48.752;9.180;2023-07-31T06:01:34;18.30;99.90
423;DHT22;198;48.752;9.180;2023-07-31T06:03:59;18.50;99.90
423;DHT22;198;48.752;9.180;2023-07-31T06:06:25;18.60;99.90
423;DHT22;198;48.752;9.180;2023-07-31T06:08:50;18.70;99.90
423;DHT22;198;48.752;9.180;2023-07-31T06:11:16;18.90;99.90
423;DHT22;198;48.752;9.180;2023-07-31T06:13:42;19.10;99.90
423;DHT22;198;48.752;9.180;2023-07-31T06:16:09;19.30;99.90
423;DHT22;198;48.752;9.180;2023-07-31T06:18:35;19.30;99.90
423;DHT22;198;48.752;9.180;2023-07-31T06:21:00;19.40;99.20
423;DHT22;198;48.752;9.180;2023-07-31T06:23:26;19.50;98.90
423;DHT22;198;48.752;9.180;2023-07-31T06:25:52;19.50;98.60
423;DHT22;198;48.752;9.180;2023-07-31T06:28:17;19.50;98.10
423;DHT22;198;48.752;9.180;2023-07-31T06:30:43;19.60;96.50
423;DHT22;198;48.752;9.180;2023-07-31T06:33:08;19.80;95.60
423;DHT22;198;48.752;9.180;2023-07-31T06:35:34;19.90;93.80
423;DHT22;198;48.752;9.180;2023-07-31T06:38:00;20.10;92.80
423;DHT22;198;48.752;9.180;2023-07-31T06:40:26;20.10;92.10
423;DHT22;198;48.752;9.180;2023-07-31T06:42:52;20.00;91.50
423;DHT22;198;48.752;9.180;2023-07-31T06:45:17;19.90;91.30
423;DHT22;198;48.752;9.180;2023-07-31T06:47:43;19.80;91.10
423;DHT22;198;48.752;9.180;2023-07-31T06:50:09;19.80;91.50
423;DHT22;198;48.752;9.180;2023-07-31T06:52:34;19.80;91.00
423;DHT22;198;48.752;9.180;2023-07-31T06:55:20;19.80;91.00
423;DHT22;198;48.752;9.180;2023-07-31T06:57:46;19.80;91.00
423;DHT22;198;48.752;9.180;2023-07-31T07:00:12;20.00;91.30
423;DHT22;198;48.752;9.180;2023-07-31T07:02:38;20.20;90.00
423;DHT22;198;48.752;9.180;2023-07-31T07:05:04;20.20;88.60
423;DHT22;198;48.752;9.180;2023-07-31T07:07:30;20.20;87.90
423;DHT22;198;48.752;9.180;2023-07-31T07:09:55;20.30;88.30
423;DHT22;198;48.752;9.180;2023-07-31T07:12:21;20.50;88.10
423;DHT22;198;48.752;9.180;2023-07-31T07:14:46;20.60;87.20
423;DHT22;198;48.752;9.180;2023-07-31T07:17:13;20.90;86.50
423;DHT22;198;48.752;9.180;2023-07-31T07:19:40;21.10;84.50
423;DHT22;198;48.752;9.180;2023-07-31T07:22:06;21.40;80.80
423;DHT22;198;48.752;9.180;2023-07-31T07:24:31;21.50;78.60
423;DHT22;198;48.752;9.180;2023-07-31T07:26:57;21.60;78.40
423;DHT22;198;48.752;9.180;2023-07-31T07:29:22;21.90;76.40
423;DHT22;198;48.752;9.180;2023-07-31T07:31:48;22.10;75.10
423;DHT22;198;48.752;9.180;2023-07-31T07:34:13;22.20;73.40
423;DHT22;198;48.752;9.180;2023-07-31T07:36:39;22.10;72.30
423;DHT22;198;48.752;9.180;2023-07-31T07:39:04;21.90;72.30
423;DHT22;198;48.752;9.180;2023-07-31T07:41:30;21.70;72.10
423;DHT22;198;48.752;9.180;2023-07-31T07:43:55;21.50;73.80
423;DHT22;198;48.752;9.180;2023-07-31T07:46:21;21.40;75.10
423;DHT22;198;48.752;9.180;2023-07-31T07:48:46;21.40;74.50
423;DHT22;198;48.752;9.180;2023-07-31T07:51:12;21.30;73.90
423;DHT22;198;48.752;9.180;2023-07-31T07:53:37;21.20;74.30
423;DHT22;198;48.752;9.180;2023-07-31T07:56:03;21.20;76.00
423;DHT22;198;48.752;9.180;2023-07-31T07:58:29;21.20;76.60
423;DHT22;198;48.752;9.180;2023-07-31T08:00:54;21.30;76.90
423;DHT22;198;48.752;9.180;2023-07-31T08:03:20;21.40;76.50
423;DHT22;198;48.752;9.180;2023-07-31T08:05:45;21.70;76.30
423;DHT22;198;48.752;9.180;2023-07-31T08:08:15;21.80;74.50
423;DHT22;198;48.752;9.180;2023-07-31T08:10:41;21.80;72.20
423;DHT22;198;48.752;9.180;2023-07-31T08:13:07;21.70;72.40
423;DHT22;198;48.752;9.180;2023-07-31T08:15:32;21.70;72.00
423;DHT22;198;48.752;9.180;2023-07-31T08:17:58;21.70;71.30
423;DHT22;198;48.752;9.180;2023-07-31T08:20:23;21.60;72.00
423;DHT22;198;48.752;9.180;2023-07-31T08:22:49;21.50;71.90
423;DHT22;198;48.752;9.180;2023-07-31T08:25:14;21.60;71.50
423;DHT22;198;48.752;9.180;2023-07-31T08:27:43;21.60;71.80
423;DHT22;198;48.752;9.180;2023-07-31T08:30:09;21.30;71.80
423;DHT22;198;48.752;9.180;2023-07-31T08:32:35;21.30;73.00
423;DHT22;198;48.752;9.180;2023-07-31T08:35:01;21.30;73.40
423;DHT22;198;48.752;9.180;2023-07-31T08:37:26;21.40;72.40
423;DHT22;198;48.752;9.180;2023-07-31T08:39:52;21.50;71.20
423;DHT22;198;48.752;9.180;2023-07-31T08:42:17;21.70;72.30
423;DHT22;198;48.752;9.180;2023-07-31T08:44:43;22.00;70.80
423;DHT22;198;48.752;9.180;2023-07-31T08:47:10;22.20;69.00
423;DHT22;198;48.752;9.180;2023-07-31T08:49:37;22.50;69.20
423;DHT22;198;48.752;9.180;2023-07-31T08:52:04;22.80;67.30
423;DHT22;198;48.752;9.180;2023-07-31T08:54:30;23.10;67.20
423;DHT22;198;48.752;9.180;2023-07-31T08:56:58;23.30;65.30
423;DHT22;198;48.752;9.180;2023-07-31T08:59:27;23.40;64.70
423;DHT22;198;48.752;9.180;2023-07-31T09:01:55;23.70;63.90
423;DHT22;198;48.752;9.180;2023-07-31T09:04:23;23.80;62.20
423;DHT22;198;48.752;9.180;2023-07-31T09:06:53;23.90;61.30
423;DHT22;198;48.752;9.180;2023-07-31T09:09:22;24.00;59.60
423;DHT22;198;48.752;9.180;2023-07-31T09:11:49;23.90;60.60
423;DHT22;198;48.752;9.180;2023-07-31T09:14:15;24.10;59.50
423;DHT22;198;48.752;9.180;2023-07-31T09:16:58;24.30;59.30
423;DHT22;198;48.752;9.180;2023-07-31T09:19:29;24.50;58.50
423;DHT22;198;48.752;9.180;2023-07-31T09:21:55;24.80;58.20
423;DHT22;198;48.752;9.180;2023-07-31T09:24:33;25.20;56.80
423;DHT22;198;48.752;9.180;2023-07-31T09:27:00;25.50;55.70
423;DHT22;198;48.752;9.180;2023-07-31T09:29:27;25.50;55.30
423;DHT22;198;48.752;9.180;2023-07-31T09:31:54;25.40;54.10
423;DHT22;198;48.752;9.180;2023-07-31T09:34:28;25.30;54.20
423;DHT22;198;48.752;9.180;2023-07-31T09:36:54;25.10;53.90
423;DHT22;198;48.752;9.180;2023-07-31T09:39:20;24.90;55.10
423;DHT22;198;48.752;9.180;2023-07-31T09:41:48;24.50;55.70
423;DHT22;198;48.752;9.180;2023-07-31T09:44:18;24.40;56.50
423;DHT22;198;48.752;9.180;2023-07-31T09:46:44;24.20;57.20
423;DHT22;198;48.752;9.180;2023-07-31T09:49:10;24.20;57.20
423;DHT22;198;48.752;9.180;2023-07-31T09:51:40;24.20;57.20
423;DHT22;198;48.752;9.180;2023-07-31T09:54:13;24.60;57.30
423;DHT22;198;48.752;9.180;2023-07-31T09:56:47;25.50;57.30
423;DHT22;198;48.752;9.180;2023-07-31T09:59:15;27.10;54.50
423;DHT22;198;48.752;9.180;2023-07-31T10:01:41;28.00;52.20
423;DHT22;198;48.752;9.180;2023-07-31T10:04:10;29.10;48.60
423;DHT22;198;48.752;9.180;2023-07-31T10:06:37;29.10;46.00
423;DHT22;198;48.752;9.180;2023-07-31T10:09:06;28.50;45.60
423;DHT22;198;48.752;9.180;2023-07-31T10:11:46;28.60;45.80
423;DHT22;198;48.752;9.180;2023-07-31T10:14:19;28.60;45.90
423;DHT22;198;48.752;9.180;2023-07-31T10:16:45;29.20;44.90
423;DHT22;198;48.752;9.180;2023-07-31T10:19:11;30.50;42.60
423;DHT22;198;48.752;9.180;2023-07-31T10:21:37;30.30;41.00
423;DHT22;198;48.752;9.180;2023-07-31T10:24:04;29.90;41.20
423;DHT22;198;48.752;9.180;2023-07-31T10:26:31;30.30;41.60
423;DHT22;198;48.752;9.180;2023-07-31T10:29:00;30.60;41.10
423;DHT22;198;48.752;9.180;2023-07-31T10:31:28;30.40;40.20
423;DHT22;198;48.752;9.180;2023-07-31T10:33:55;29.80;40.90
423;DHT22;198;48.752;9.180;2023-07-31T10:36:21;29.70;41.30
423;DHT22;198;48.752;9.180;2023-07-31T10:38:50;29.30;41.20
423;DHT22;198;48.752;9.180;2023-07-31T10:41:16;28.90;41.80
423;DHT22;198;48.752;9.180;2023-07-31T10:43:41;29.40;41.50
423;DHT22;198;48.752;9.180;2023-07-31T10:46:13;30.70;41.70
423;DHT22;198;48.752;9.180;2023-07-31T10:48:41;32.10;38.70
423;DHT22;198;48.752;9.180;2023-07-31T10:51:08;32.30;37.10
423;DHT22;198;48.752;9.180;2023-07-31T10:53:38;31.90;37.10
423;DHT22;198;48.752;9.180;2023-07-31T10:56:09;32.70;37.10
423;DHT22;198;48.752;9.180;2023-07-31T10:58:36;31.90;35.90
423;DHT22;198;48.752;9.180;2023-07-31T11:01:03;31.30;36.60
423;DHT22;198;48.752;9.180;2023-07-31T11:03:49;30.50;37.30
423;DHT22;198;48.752;9.180;2023-07-31T11:06:17;29.90;38.90
423;DHT22;198;48.752;9.180;2023-07-31T11:08:45;29.60;38.70
423;DHT22;198;48.752;9.180;2023-07-31T11:11:12;29.10;39.40
423;DHT22;198;48.752;9.180;2023-07-31T11:13:52;28.70;40.40
423;DHT22;198;48.752;9.180;2023-07-31T11:16:24;28.40;41.20
423;DHT22;198;48.752;9.180;2023-07-31T11:18:51;28.10;41.40
423;DHT22;198;48.752;9.180;2023-07-31T11:21:22;27.70;41.90
423;DHT22;198;48.752;9.180;2023-07-31T11:23:50;27.50;43.00
423;DHT22;198;48.752;9.180;2023-07-31T11:26:17;27.50;43.40
423;DHT22;198;48.752;9.180;2023-07-31T11:28:42;27.30;43.00
423;DHT22;198;48.752;9.180;2023-07-31T11:31:11;26.90;43.80
423;DHT22;198;48.752;9.180;2023-07-31T11:33:37;26.90;44.40
423;DHT22;198;48.752;9.180;2023-07-31T11:36:02;26.70;44.50
423;DHT22;198;48.752;9.180;2023-07-31T11:41:03;26.50;45.50
423;DHT22;198;48.752;9.180;2023-07-31T11:43:29;27.10;45.60
423;DHT22;198;48.752;9.180;2023-07-31T11:45:57;28.10;43.80
423;DHT22;198;48.752;9.180;2023-07-31T11:48:25;28.30;43.30
423;DHT22;198;48.752;9.180;2023-07-31T11:50:52;28.50;42.90
423;DHT22;198;48.752;9.180;2023-07-31T11:53:33;28.60;42.60
423;DHT22;198;48.752;9.180;2023-07-31T11:56:01;28.60;42.60
423;DHT22;198;48.752;9.180;2023-07-31T11:58:30;28.80;42.00
423;DHT22;198;48.752;9.180;2023-07-31T12:00:56;28.20;42.80
423;DHT22;198;48.752;9.180;2023-07-31T12:03:22;27.60;43.40
423;DHT22;198;48.752;9.180;2023-07-31T12:05:48;27.00;44.40
423;DHT22;198;48.752;9.180;2023-07-31T12:08:14;26.80;45.30
423;DHT22;198;48.752;9.180;2023-07-31T12:10:40;26.60;46.20
423;DHT22;198;48.752;9.180;2023-07-31T12:13:11;26.80;46.10
423;DHT22;198;48.752;9.180;2023-07-31T12:15:41;26.90;46.20
423;DHT22;198;48.752;9.180;2023-07-31T12:18:12;27.10;45.80
423;DHT22;198;48.752;9.180;2023-07-31T12:20:48;27.30;45.20
423;DHT22;198;48.752;9.180;2023-07-31T12:23:22;27.20;45.00
423;DHT22;198;48.752;9.180;2023-07-31T12:26:03;26.90;45.50
423;DHT22;198;48.752;9.180;2023-07-31T12:28:28;26.50;45.80
423;DHT22;198;48.752;9.180;2023-07-31T12:30:58;26.20;46.30
423;DHT22;198;48.752;9.180;2023-07-31T12:33:35;25.90;46.90
423;DHT22;198;48.752;9.180;2023-07-31T12:36:03;25.70;47.50
423;DHT22;198;48.752;9.180;2023-07-31T12:38:29;25.40;48.10
423;DHT22;198;48.752;9.180;2023-07-31T12:40:55;25.10;48.70
423;DHT22;198;48.752;9.180;2023-07-31T12:43:20;24.80;49.30
423;DHT22;198;48.752;9.180;2023-07-31T12:45:46;24.60;50.00
423;DHT22;198;48.752;9.180;2023-07-31T12:48:13;24.50;50.60
423;DHT22;198;48.752;9.180;2023-07-31T12:50:38;24.30;51.00
423;DHT22;198;48.752;9.180;2023-07-31T12:53:05;24.20;51.70
423;DHT22;198;48.752;9.180;2023-07-31T12:55:31;24.10;52.00
423;DHT22;198;48.752;9.180;2023-07-31T12:57:58;24.20;51.70
423;DHT22;198;48.752;9.180;2023-07-31T13:00:23;24.30;51.80
423;DHT22;198;48.752;9.180;2023-07-31T13:02:49;24.50;51.70
423;DHT22;198;48.752;9.180;2023-07-31T13:05:14;24.70;51.00
423;DHT22;198;48.752;9.180;2023-07-31T13:07:40;25.00;50.90
423;DHT22;198;48.752;9.180;2023-07-31T13:10:07;25.10;50.60
423;DHT22;198;48.752;9.180;2023-07-31T13:12:33;25.40;50.40
423;DHT22;198;48.752;9.180;2023-07-31T13:14:58;25.60;49.80
423;DHT22;198;48.752;9.180;2023-07-31T13:17:24;26.10;49.10
423;DHT22;198;48.752;9.180;2023-07-31T13:19:49;26.40;48.70
423;DHT22;198;48.752;9.180;2023-07-31T13:22:15;26.80;48.00
423;DHT22;198;48.752;9.180;2023-07-31T13:24:41;27.20;47.20
423;DHT22;198;48.752;9.180;2023-07-31T13:27:07;27.60;46.70
423;DHT22;198;48.752;9.180;2023-07-31T13:29:32;28.10;46.00
423;DHT22;198;48.752;9.180;2023-07-31T13:31:58;28.50;44.90
423;DHT22;198;48.752;9.180;2023-07-31T13:34:24;29.10;44.50
423;DHT22;198;48.752;9.180;2023-07-31T13:36:49;30.30;42.70
423;DHT22;198;48.752;9.180;2023-07-31T13:39:15;31.50;40.70
423;DHT22;198;48.752;9.180;2023-07-31T13:41:40;31.80;38.90
423;DHT22;198;48.752;9.180;2023-07-31T13:44:06;31.50;38.50
423;DHT22;198;48.752;9.180;2023-07-31T13:46:31;30.80;39.10
423;DHT22;198;48.752;9.180;2023-07-31T13:49:00;30.60;39.60
423;DHT22;198;48.752;9.180;2023-07-31T13:51:26;31.70;40.30
423;DHT22;198;48.752;9.180;2023-07-31T13:53:53;33.20;37.60
423;DHT22;198;48.752;9.180;2023-07-31T13:56:18;32.80;36.80
423;DHT22;198;48.752;9.180;2023-07-31T13:58:44;32.20;37.30
423;DHT22;198;48.752;9.180;2023-07-31T14:01:09;31.40;38.00
423;DHT22;198;48.752;9.180;2023-07-31T14:03:35;30.50;39.10
423;DHT22;198;48.752;9.180;2023-07-31T14:06:00;29.90;40.40
423;DHT22;198;48.752;9.180;2023-07-31T14:08:26;29.20;40.90
423;DHT22;198;48.752;9.180;2023-07-31T14:10:51;28.70;42.10
423;DHT22;198;48.752;9.180;2023-07-31T14:13:17;28.10;43.10
423;DHT22;198;48.752;9.180;2023-07-31T14:15:43;27.70;43.90
423;DHT22;198;48.752;9.180;2023-07-31T14:18:09;27.40;44.70
423;DHT22;198;48.752;9.180;2023-07-31T14:20:34;26.90;45.20
423;DHT22;198;48.752;9.180;2023-07-31T14:23:01;26.60;46.10
423;DHT22;198;48.752;9.180;2023-07-31T14:25:27;26.40;47.10
423;DHT22;198;48.752;9.180;2023-07-31T14:27:52;26.20;47.50
423;DHT22;198;48.752;9.180;2023-07-31T14:30:18;26.00;48.00
423;DHT22;198;48.752;9.180;2023-07-31T14:32:44;25.80;48.60
423;DHT22;198;48.752;9.180;2023-07-31T14:35:09;25.70;49.00
423;DHT22;198;48.752;9.180;2023-07-31T14:37:39;25.60;49.60
423;DHT22;198;48.752;9.180;2023-07-31T14:40:06;25.50;50.10
423;DHT22;198;48.752;9.180;2023-07-31T14:42:32;25.50;50.30
423;DHT22;198;48.752;9.180;2023-07-31T14:44:57;25.50;50.50
423;DHT22;198;48.752;9.180;2023-07-31T14:47:23;25.60;50.50
423;DHT22;198;48.752;9.180;2023-07-31T14:49:48;25.70;49.70
423;DHT22;198;48.752;9.180;2023-07-31T14:52:14;25.90;49.00
423;DHT22;198;48.752;9.180;2023-07-31T14:54:40;26.10;48.50
423;DHT22;198;48.752;9.180;2023-07-31T14:57:05;26.30;48.40
423;DHT22;198;48.752;9.180;2023-07-31T14:59:31;26.50;48.00
423;DHT22;198;48.752;9.180;2023-07-31T15:01:56;26.60;46.90
423;DHT22;198;48.752;9.180;2023-07-31T15:04:22;26.60;46.40
423;DHT22;198;48.752;9.180;2023-07-31T15:06:49;27.10;45.90
423;DHT22;198;48.752;9.180;2023-07-31T15:09:15;27.70;44.90
423;DHT22;198;48.752;9.180;2023-07-31T15:11:40;27.80;44.30
423;DHT22;198;48.752;9.180;2023-07-31T15:14:06;27.90;43.90
423;DHT22;198;48.752;9.180;2023-07-31T15:16:31;27.80;43.60
423;DHT22;198;48.752;9.180;2023-07-31T15:18:57;28.00;43.80
423;DHT22;198;48.752;9.180;2023-07-31T15:21:22;27.90;44.20
423;DHT22;198;48.752;9.180;2023-07-31T15:23:48;27.50;44.70
423;DHT22;198;48.752;9.180;2023-07-31T15:26:13;27.40;44.60
423;DHT22;198;48.752;9.180;2023-07-31T15:28:39;27.20;44.70
423;DHT22;198;48.752;9.180;2023-07-31T15:31:04;28.10;44.90
423;DHT22;198;48.752;9.180;2023-07-31T15:33:30;29.20;43.20
423;DHT22;198;48.752;9.180;2023-07-31T15:35:55;31.20;41.00
423;DHT22;198;48.752;9.180;2023-07-31T15:38:23;32.40;38.00
423;DHT22;198;48.752;9.180;2023-07-31T15:40:48;32.60;37.00
423;DHT22;198;48.752;9.180;2023-07-31T15:43:15;32.60;37.10
423;DHT22;198;48.752;9.180;2023-07-31T15:45:41;32.60;36.70
423;DHT22;198;48.752;9.180;2023-07-31T15:48:07;32.60;36.40
423;DHT22;198;48.752;9.180;2023-07-31T15:50:32;33.00;36.30
423;DHT22;198;48.752;9.180;2023-07-31T15:52:58;33.40;35.20
423;DHT22;198;48.752;9.180;2023-07-31T15:55:23;33.60;34.80
423;DHT22;198;48.752;9.180;2023-07-31T15:57:50;34.20;34.70
423;DHT22;198;48.752;9.180;2023-07-31T16:00:16;34.90;33.60
423;DHT22;198;48.752;9.180;2023-07-31T16:02:41;36.20;32.80
423;DHT22;198;48.752;9.180;2023-07-31T16:05:08;36.40;31.50
423;DHT22;198;48.752;9.180;2023-07-31T16:07:33;36.50;31.00
423;DHT22;198;48.752;9.180;2023-07-31T16:09:59;36.70;30.60
423;DHT22;198;48.752;9.180;2023-07-31T16:12:24;35.90;30.80
423;DHT22;198;48.752;9.180;2023-07-31T16:14:50;35.50;31.30
423;DHT22;198;48.752;9.180;2023-07-31T16:17:15;35.50;31.70
423;DHT22;198;48.752;9.180;2023-07-31T16:19:41;36.10;32.00
423;DHT22;198;48.752;9.180;2023-07-31T16:22:06;36.40;30.80
423;DHT22;198;48.752;9.180;2023-07-31T16:24:32;36.80;30.80
423;DHT22;198;48.752;9.180;2023-07-31T16:26:58;36.20;30.10
423;DHT22;198;48.752;9.180;2023-07-31T16:29:23;35.60;30.60
423;DHT22;198;48.752;9.180;2023-07-31T16:31:49;35.10;30.90
423;DHT22;198;48.752;9.180;2023-07-31T16:34:14;34.20;31.80
423;DHT22;198;48.752;9.180;2023-07-31T16:36:40;33.00;33.00
423;DHT22;198;48.752;9.180;2023-07-31T16:39:05;32.30;34.10
423;DHT22;198;48.752;9.180;2023-07-31T16:41:31;32.00;34.50